New Effington, South Dakota
Current Conditions -  °F | °C
As of 4:56 PM on Wednesday 22 Oct 2014 (Local Time) from KETH Reporting Station
Moderate Rain Moderate Rain  
Wind Chill: 59°   Ceiling: 4400
Heat Index: 59°   Visibility: 7mi
Dew Point: 54°   Wind: 10mph
Humidity: 82%   Direction: 270°W
Pressure: 29.9"   Gusts: 21mph
Location:  45.86°N, 96.92°W
Report Text: KETH 222156Z AUTO 27009G18KT 7SM RA SCT021 BKN044 15/12 A2990 RMK AO2
Loading
Personal Weather Stations






























Interactive Weather Map
Tropical Storm Tracking
New forecast layout! Learn more

10-Day Weather Forecast

Advertisements
Track Severe Weather on mobile